Time;durP1;ratioP1;P1;durP2;ratioP2;P2;SDS_P1;SDS_P2;PMS_P1;PMS_P2;Temp;Humidity;BMP_temperature;BMP_pressure;BME280_temperature;BME280_humidity;BME280_pressure;Samples;Min_cycle;Max_cycle;Signal;HPM_P1;HPM_P2
2021/06/05 00:00:09;;;;;;;;;4.75;4.75;;;;;;;;4981731;28;8968;-91
2021/06/05 00:02:36;;;;;;;;;3.00;3.00;;;;;;;;4983547;28;8894;-86
2021/06/05 00:05:06;;;;;;;;;3.50;3.50;;;;;;;;4981105;28;8886;-83
2021/06/05 00:07:32;;;;;;;;;3.25;2.00;;;;;;;;4979650;28;8901;-79
2021/06/05 00:09:59;;;;;;;;;3.75;3.75;;;;;;;;4980580;28;8920;-80
2021/06/05 00:12:29;;;;;;;;;3.75;3.75;;;;;;;;4978133;28;8897;-74
2021/06/05 00:14:57;;;;;;;;;4.00;4.00;;;;;;;;4972479;28;8864;-86
2021/06/05 00:17:24;;;;;;;;;2.25;2.25;;;;;;;;4975508;28;8892;-79
2021/06/05 00:19:51;;;;;;;;;4.00;4.00;;;;;;;;4982806;28;9466;-79
2021/06/05 00:22:18;;;;;;;;;4.00;4.00;;;;;;;;4973908;28;8867;-80
2021/06/05 00:24:45;;;;;;;;;3.25;3.25;;;;;;;;4978773;28;8891;-90
2021/06/05 00:27:12;;;;;;;;;3.25;3.25;;;;;;;;4981141;28;8886;-80
2021/06/05 00:29:39;;;;;;;;;4.50;3.00;;;;;;;;4980275;28;8857;-86
2021/06/05 00:32:08;;;;;;;;;3.00;3.00;;;;;;;;4978634;28;8834;-86
2021/06/05 00:34:35;;;;;;;;;3.00;3.00;;;;;;;;4982515;28;8914;-79
2021/06/05 00:37:03;;;;;;;;;3.00;2.00;;;;;;;;4979481;28;8985;-78
2021/06/05 00:39:29;;;;;;;;;4.00;4.00;;;;;;;;4978938;28;8914;-87
2021/06/05 00:41:56;;;;;;;;;4.75;4.00;;;;;;;;4978190;28;8867;-82
2021/06/05 00:44:23;;;;;;;;;4.50;3.00;;;;;;;;4973864;28;8924;-90
2021/06/05 00:46:50;;;;;;;;;1.00;1.00;;;;;;;;4980364;28;8871;-84
2021/06/05 00:49:19;;;;;;;;;3.50;3.50;;;;;;;;4981743;28;8871;-91
2021/06/05 00:51:49;;;;;;;;;0.25;0.00;;;;;;;;4979202;28;9783;-90
2021/06/05 00:54:17;;;;;;;;;4.00;4.00;;;;;;;;4981466;28;8873;-80
2021/06/05 00:56:48;;;;;;;;;4.00;4.00;;;;;;;;4980545;28;8859;-79
2021/06/05 00:59:15;;;;;;;;;4.50;4.50;;;;;;;;4981231;28;8949;-85
2021/06/05 01:01:42;;;;;;;;;4.00;4.00;;;;;;;;4983086;28;8819;-88
2021/06/05 01:04:10;;;;;;;;;6.50;4.00;;;;;;;;4978405;28;8873;-76
2021/06/05 01:06:43;;;;;;;;;6.00;4.00;;;;;;;;4985759;28;8866;-87
2021/06/05 01:09:14;;;;;;;;;5.25;5.25;;;;;;;;4985069;28;8886;-86
2021/06/05 01:11:46;;;;;;;;;4.75;3.00;;;;;;;;4981791;28;8898;-84
2021/06/05 01:14:30;;;;;;;;;4.25;4.25;;;;;;;;4984660;28;8890;-85
2021/06/05 01:17:01;;;;;;;;;5.00;5.00;;;;;;;;4987971;28;8867;-91
2021/06/05 01:19:51;;;;;;;;;7.00;5.00;;;;;;;;4984462;28;8957;-80
2021/06/05 01:22:46;;;;;;;;;6.00;6.00;;;;;;;;4987293;28;8891;-81
2021/06/05 01:25:29;;;;;;;;;6.50;6.00;;;;;;;;4977173;28;8851;-90
2021/06/05 01:28:03;;;;;;;;;9.00;7.75;;;;;;;;4985706;28;8887;-86
2021/06/05 01:30:37;;;;;;;;;6.00;6.00;;;;;;;;4986800;28;8799;-86
2021/06/05 01:33:04;;;;;;;;;9.25;6.25;;;;;;;;4984040;28;8862;-87
2021/06/05 01:35:33;;;;;;;;;8.50;8.50;;;;;;;;4987146;28;8910;-84
2021/06/05 01:38:02;;;;;;;;;14.75;13.00;;;;;;;;4982224;28;8859;-76
2021/06/05 01:40:30;;;;;;;;;10.75;9.25;;;;;;;;4985883;28;9040;-80
2021/06/05 01:43:00;;;;;;;;;6.50;5.75;;;;;;;;4984315;28;8870;-80
2021/06/05 01:45:31;;;;;;;;;10.00;10.00;;;;;;;;4982023;28;8899;-84
2021/06/05 01:47:58;;;;;;;;;11.00;9.75;;;;;;;;4981551;28;8871;-85
2021/06/05 01:50:29;;;;;;;;;7.75;7.00;;;;;;;;4976742;28;8899;-83
2021/06/05 01:52:59;;;;;;;;;6.00;6.00;;;;;;;;4979650;28;8903;-80
2021/06/05 01:55:33;;;;;;;;;7.00;7.00;;;;;;;;4973980;28;8898;-89
2021/06/05 01:58:12;;;;;;;;;9.25;7.00;;;;;;;;4983705;28;9735;-88
2021/06/05 02:00:41;;;;;;;;;11.50;11.50;;;;;;;;4985414;28;8807;-86
2021/06/05 02:03:08;;;;;;;;;14.50;13.00;;;;;;;;4983750;28;8948;-77
2021/06/05 02:05:35;;;;;;;;;15.00;13.75;;;;;;;;4984095;28;8993;-89
2021/06/05 02:08:02;;;;;;;;;16.75;15.50;;;;;;;;4984194;28;8858;-87
2021/06/05 02:10:32;;;;;;;;;14.75;14.75;;;;;;;;4985112;28;8851;-91
2021/06/05 02:13:00;;;;;;;;;15.50;12.50;;;;;;;;4979533;28;8961;-89
2021/06/05 02:15:32;;;;;;;;;16.50;14.50;;;;;;;;4977636;28;8923;-79
2021/06/05 02:18:01;;;;;;;;;23.75;18.75;;;;;;;;4974918;28;10148;-82
2021/06/05 02:20:32;;;;;;;;;21.75;19.50;;;;;;;;4984595;28;8993;-88
2021/06/05 02:23:03;;;;;;;;;19.75;19.25;;;;;;;;4984727;28;8878;-92
2021/06/05 02:25:30;;;;;;;;;21.25;21.25;;;;;;;;4973368;28;9004;-82
2021/06/05 02:28:01;;;;;;;;;20.75;16.75;;;;;;;;4983872;28;8905;-83
2021/06/05 02:30:30;;;;;;;;;22.50;22.00;;;;;;;;4974353;28;8778;-85
2021/06/05 02:32:58;;;;;;;;;15.75;15.75;;;;;;;;4984881;28;8871;-75
2021/06/05 02:35:27;;;;;;;;;24.00;22.00;;;;;;;;4983996;28;8871;-76
2021/06/05 02:37:54;;;;;;;;;22.50;20.25;;;;;;;;4984862;28;9036;-78
2021/06/05 02:40:31;;;;;;;;;15.33;13.67;;;;;;;;4985751;28;8882;-79
2021/06/05 02:43:01;;;;;;;;;18.33;15.33;;;;;;;;4981741;28;9828;-83
2021/06/05 02:45:36;;;;;;;;;23.00;20.25;;;;;;;;4982954;28;8963;-82
2021/06/05 02:48:05;;;;;;;;;22.50;19.75;;;;;;;;4986170;28;8859;-88
2021/06/05 02:50:39;;;;;;;;;21.50;19.75;;;;;;;;4983271;28;8973;-91
2021/06/05 02:53:07;;;;;;;;;28.67;23.33;;;;;;;;4976847;28;8871;-89
2021/06/05 02:55:35;;;;;;;;;19.00;18.25;;;;;;;;4983314;28;9101;-87
2021/06/05 02:58:03;;;;;;;;;23.67;23.67;;;;;;;;4977787;28;8916;-75
2021/06/05 03:00:35;;;;;;;;;19.25;18.50;;;;;;;;4982934;28;8988;-83
2021/06/05 03:03:03;;;;;;;;;24.00;21.67;;;;;;;;4974145;28;8999;-83
2021/06/05 03:05:31;;;;;;;;;22.33;19.00;;;;;;;;4984142;28;9156;-79
2021/06/05 03:07:58;;;;;;;;;29.67;26.67;;;;;;;;4984747;28;9052;-82
2021/06/05 03:10:26;;;;;;;;;30.25;24.75;;;;;;;;4976922;28;8976;-80
2021/06/05 03:12:53;;;;;;;;;30.67;28.00;;;;;;;;4982661;28;8874;-81
2021/06/05 03:15:22;;;;;;;;;27.33;26.33;;;;;;;;4985277;28;9101;-78
2021/06/05 03:17:48;;;;;;;;;28.00;24.67;;;;;;;;4976477;28;9167;-75
2021/06/05 03:20:19;;;;;;;;;33.33;30.00;;;;;;;;4979048;28;9169;-86
2021/06/05 03:22:46;;;;;;;;;36.33;34.00;;;;;;;;4982706;28;9187;-75
2021/06/05 03:25:14;;;;;;;;;40.00;35.50;;;;;;;;4978988;28;9311;-79
2021/06/05 03:27:41;;;;;;;;;40.00;35.50;;;;;;;;4985005;28;9588;-83
2021/06/05 03:30:11;;;;;;;;;41.50;33.50;;;;;;;;4982459;28;9608;-83
2021/06/05 03:32:40;;;;;;;;;49.25;39.25;;;;;;;;4982360;28;9782;-81
2021/06/05 03:35:09;;;;;;;;;42.25;36.00;;;;;;;;4982036;28;9643;-78
2021/06/05 03:37:38;;;;;;;;;33.00;32.33;;;;;;;;4981770;28;9644;-80
2021/06/05 03:40:06;;;;;;;;;32.33;29.33;;;;;;;;4983876;28;9344;-88
2021/06/05 03:42:33;;;;;;;;;34.67;31.67;;;;;;;;4986051;28;9334;-82
2021/06/05 03:45:00;;;;;;;;;37.25;33.75;;;;;;;;4985157;28;9419;-89
2021/06/05 03:47:27;;;;;;;;;29.67;28.00;;;;;;;;4981615;28;9438;-88
2021/06/05 03:49:55;;;;;;;;;38.00;30.33;;;;;;;;4979937;28;9267;-83
2021/06/05 03:52:23;;;;;;;;;30.00;27.33;;;;;;;;4982705;28;9350;-89
2021/06/05 03:54:50;;;;;;;;;29.67;28.33;;;;;;;;4979964;28;9220;-86
2021/06/05 03:57:17;;;;;;;;;28.67;28.67;;;;;;;;4980676;28;9036;-89
2021/06/05 03:59:44;;;;;;;;;32.33;28.00;;;;;;;;4978885;28;9246;-87
2021/06/05 04:02:10;;;;;;;;;25.33;23.00;;;;;;;;4979028;28;9231;-89
2021/06/05 04:04:37;;;;;;;;;18.67;18.67;;;;;;;;4982406;28;9149;-82
2021/06/05 04:07:09;;;;;;;;;17.00;15.67;;;;;;;;4977308;28;8999;-90
2021/06/05 04:09:35;;;;;;;;;19.33;19.33;;;;;;;;4976081;28;9055;-89
2021/06/05 04:12:03;;;;;;;;;22.33;22.33;;;;;;;;4984604;28;8972;-88
2021/06/05 04:14:30;;;;;;;;;23.00;20.25;;;;;;;;4977153;28;8951;-89
2021/06/05 04:16:57;;;;;;;;;15.75;15.50;;;;;;;;4982859;28;8867;-85
2021/06/05 04:19:25;;;;;;;;;16.00;16.00;;;;;;;;4980349;28;8883;-90
2021/06/05 04:21:52;;;;;;;;;18.25;16.00;;;;;;;;4976343;28;8889;-89
2021/06/05 04:24:21;;;;;;;;;12.75;11.50;;;;;;;;4974429;28;8893;-87
2021/06/05 04:26:48;;;;;;;;;11.25;11.25;;;;;;;;4974217;28;8855;-88
2021/06/05 04:29:15;;;;;;;;;9.75;7.25;;;;;;;;4982974;28;8865;-87
2021/06/05 04:31:42;;;;;;;;;7.75;7.00;;;;;;;;4975022;28;8877;-83
2021/06/05 04:34:09;;;;;;;;;11.25;11.25;;;;;;;;4982353;28;8865;-80
2021/06/05 04:36:36;;;;;;;;;10.00;10.00;;;;;;;;4988217;28;8932;-79
2021/06/05 04:39:04;;;;;;;;;10.75;10.75;;;;;;;;4986035;28;8904;-87
2021/06/05 04:41:33;;;;;;;;;10.00;10.00;;;;;;;;4989356;28;8944;-75
2021/06/05 04:44:00;;;;;;;;;10.25;10.00;;;;;;;;4984861;28;9008;-86
2021/06/05 04:46:27;;;;;;;;;12.75;10.00;;;;;;;;4984671;28;8888;-85
2021/06/05 04:48:54;;;;;;;;;14.00;11.00;;;;;;;;4985402;28;8875;-77
2021/06/05 04:51:22;;;;;;;;;2.25;1.00;;;;;;;;4987725;28;9659;-84
2021/06/05 04:53:49;;;;;;;;;11.50;9.50;;;;;;;;4988600;28;8831;-78
2021/06/05 04:56:17;;;;;;;;;9.50;9.50;;;;;;;;4986417;28;8988;-84
2021/06/05 04:58:46;;;;;;;;;14.00;10.00;;;;;;;;4988472;28;8887;-85
2021/06/05 05:01:13;;;;;;;;;12.00;7.00;;;;;;;;4979948;28;9591;-81
2021/06/05 05:03:40;;;;;;;;;13.75;10.50;;;;;;;;4984181;28;8979;-86
2021/06/05 05:06:07;;;;;;;;;13.00;9.25;;;;;;;;4979362;28;8891;-85
2021/06/05 05:08:34;;;;;;;;;9.25;7.75;;;;;;;;4985110;28;8863;-84
2021/06/05 05:11:01;;;;;;;;;9.50;6.25;;;;;;;;4984710;28;8964;-79
2021/06/05 05:13:30;;;;;;;;;8.00;8.00;;;;;;;;4986196;28;9021;-90
2021/06/05 05:15:59;;;;;;;;;7.75;7.75;;;;;;;;4987820;28;8969;-80
2021/06/05 05:18:26;;;;;;;;;6.00;4.00;;;;;;;;4986524;28;8879;-84
2021/06/05 05:20:54;;;;;;;;;8.50;8.50;;;;;;;;4986852;28;8890;-80
2021/06/05 05:23:25;;;;;;;;;7.25;7.25;;;;;;;;4985815;28;8882;-82
2021/06/05 05:25:52;;;;;;;;;8.50;8.50;;;;;;;;4983665;28;8879;-85
2021/06/05 05:28:19;;;;;;;;;11.25;9.50;;;;;;;;4985934;28;8892;-85
2021/06/05 05:30:48;;;;;;;;;9.25;7.00;;;;;;;;4984904;28;9771;-85
2021/06/05 05:33:17;;;;;;;;;2.00;2.00;;;;;;;;4988164;28;8863;-77
2021/06/05 05:35:45;;;;;;;;;8.75;6.00;;;;;;;;4986268;28;9009;-80
2021/06/05 05:38:12;;;;;;;;;8.75;6.75;;;;;;;;4987541;28;9006;-82
2021/06/05 05:40:46;;;;;;;;;6.25;6.25;;;;;;;;4988121;28;8886;-80
2021/06/05 05:43:13;;;;;;;;;10.00;10.00;;;;;;;;4982455;28;8875;-88
2021/06/05 05:45:40;;;;;;;;;9.75;7.75;;;;;;;;4984641;28;8867;-84
2021/06/05 05:48:10;;;;;;;;;10.50;8.50;;;;;;;;4983518;28;9062;-84
2021/06/05 05:50:40;;;;;;;;;8.75;5.25;;;;;;;;4988409;28;9009;-87
2021/06/05 05:53:07;;;;;;;;;9.50;7.00;;;;;;;;4985098;28;8890;-84
2021/06/05 05:55:35;;;;;;;;;10.25;8.50;;;;;;;;4991048;28;8874;-80
2021/06/05 05:58:06;;;;;;;;;7.00;7.00;;;;;;;;4980709;28;8867;-85
2021/06/05 06:00:36;;;;;;;;;6.00;6.00;;;;;;;;4987829;28;8845;-85
2021/06/05 06:03:03;;;;;;;;;6.75;5.75;;;;;;;;5005611;28;8888;-82
2021/06/05 06:05:32;;;;;;;;;6.50;6.50;;;;;;;;4999008;28;8863;-84
2021/06/05 06:08:00;;;;;;;;;3.00;3.00;;;;;;;;4995140;28;8860;-84
2021/06/05 06:10:28;;;;;;;;;8.00;8.00;;;;;;;;5011390;28;8888;-85
2021/06/05 06:12:55;;;;;;;;;6.25;6.25;;;;;;;;5001992;28;9662;-84
2021/06/05 06:15:25;;;;;;;;;8.75;8.75;;;;;;;;4996154;28;8852;-76
2021/06/05 06:17:53;;;;;;;;;6.25;5.75;;;;;;;;5004304;28;8852;-80
2021/06/05 06:20:22;;;;;;;;;10.25;9.00;;;;;;;;5003542;28;9900;-78
2021/06/05 06:22:49;;;;;;;;;8.25;6.25;;;;;;;;5005639;28;8868;-82
2021/06/05 06:25:20;;;;;;;;;8.25;6.25;;;;;;;;5001161;28;8925;-81
2021/06/05 06:27:48;;;;;;;;;6.50;6.50;;;;;;;;4999124;28;8969;-88
2021/06/05 06:30:18;;;;;;;;;9.25;7.00;;;;;;;;4998215;28;8994;-82
2021/06/05 06:32:50;;;;;;;;;5.00;5.00;;;;;;;;4981100;28;8878;-87
2021/06/05 06:35:18;;;;;;;;;10.50;8.25;;;;;;;;4979911;28;8894;-84
2021/06/05 06:37:45;;;;;;;;;10.00;9.75;;;;;;;;4980490;28;9600;-84
2021/06/05 06:40:13;;;;;;;;;11.00;10.00;;;;;;;;4983895;28;8985;-88
2021/06/05 06:42:41;;;;;;;;;11.00;9.50;;;;;;;;4980597;28;9001;-89
2021/06/05 06:45:10;;;;;;;;;15.50;12.25;;;;;;;;4973570;28;8877;-84
2021/06/05 06:47:38;;;;;;;;;9.00;9.00;;;;;;;;4982113;28;8904;-78
2021/06/05 06:50:06;;;;;;;;;9.75;9.75;;;;;;;;4986481;28;8890;-83
2021/06/05 06:52:33;;;;;;;;;9.75;9.75;;;;;;;;4982216;28;8887;-82
2021/06/05 06:55:00;;;;;;;;;11.00;10.75;;;;;;;;4986467;28;9013;-83
2021/06/05 06:57:27;;;;;;;;;14.00;13.00;;;;;;;;4980830;28;9062;-76
2021/06/05 06:59:55;;;;;;;;;12.25;12.00;;;;;;;;4971886;28;9665;-81
2021/06/05 07:02:28;;;;;;;;;12.00;11.50;;;;;;;;4990314;28;8815;-81
2021/06/05 07:04:55;;;;;;;;;11.50;11.50;;;;;;;;5002744;28;9736;-80
2021/06/05 07:07:22;;;;;;;;;11.00;11.00;;;;;;;;5000637;28;8892;-81
2021/06/05 07:09:49;;;;;;;;;11.50;10.25;;;;;;;;5003343;28;9014;-80
2021/06/05 07:12:16;;;;;;;;;11.00;10.00;;;;;;;;4997032;28;8882;-80
2021/06/05 07:14:43;;;;;;;;;11.00;11.00;;;;;;;;5002996;28;8908;-81
2021/06/05 07:17:11;;;;;;;;;13.25;12.50;;;;;;;;4996270;28;8910;-82
2021/06/05 07:19:38;;;;;;;;;10.00;10.00;;;;;;;;5003696;28;10000;-84
2021/06/05 07:22:06;;;;;;;;;10.25;10.25;;;;;;;;5002520;28;8974;-80
2021/06/05 07:24:32;;;;;;;;;8.25;8.25;;;;;;;;4996517;28;8876;-79
2021/06/05 07:26:59;;;;;;;;;10.75;7.50;;;;;;;;5000423;28;8899;-81
2021/06/05 07:29:27;;;;;;;;;7.00;7.00;;;;;;;;5003063;28;8879;-80
2021/06/05 07:31:55;;;;;;;;;11.25;11.25;;;;;;;;4998430;28;8840;-79
2021/06/05 07:34:25;;;;;;;;;12.00;10.50;;;;;;;;5000092;28;8840;-81
2021/06/05 07:36:54;;;;;;;;;10.00;7.25;;;;;;;;5002868;28;8888;-85
2021/06/05 07:39:24;;;;;;;;;11.00;11.00;;;;;;;;5004575;28;8884;-79
2021/06/05 07:41:51;;;;;;;;;14.50;10.50;;;;;;;;5004740;28;8884;-84
2021/06/05 07:44:19;;;;;;;;;7.75;7.75;;;;;;;;5003041;28;8872;-78
2021/06/05 07:46:49;;;;;;;;;10.50;9.75;;;;;;;;5001887;28;9660;-79
2021/06/05 07:49:16;;;;;;;;;13.00;11.00;;;;;;;;5003312;28;8908;-79
2021/06/05 07:51:45;;;;;;;;;11.00;11.00;;;;;;;;5003359;28;8872;-78
2021/06/05 07:54:12;;;;;;;;;12.50;11.25;;;;;;;;5001058;28;8912;-79
2021/06/05 07:56:39;;;;;;;;;5.50;5.50;;;;;;;;5004707;28;8902;-78
2021/06/05 07:59:06;;;;;;;;;13.00;13.00;;;;;;;;5002337;28;8904;-79
2021/06/05 08:01:33;;;;;;;;;14.50;12.50;;;;;;;;5002873;28;8828;-77
2021/06/05 08:04:00;;;;;;;;;12.75;12.75;;;;;;;;5002043;28;8922;-79
2021/06/05 08:06:27;;;;;;;;;15.25;13.25;;;;;;;;5001978;28;8864;-80
2021/06/05 08:08:55;;;;;;;;;15.25;14.25;;;;;;;;5005530;28;8896;-80
2021/06/05 08:11:22;;;;;;;;;18.00;15.50;;;;;;;;5007817;28;8995;-79
2021/06/05 08:13:49;;;;;;;;;14.00;12.50;;;;;;;;5010700;28;9437;-79
2021/06/05 08:16:16;;;;;;;;;19.75;18.00;;;;;;;;5008071;28;8869;-79
2021/06/05 08:18:43;;;;;;;;;13.75;13.75;;;;;;;;5007506;28;8868;-80
2021/06/05 08:21:13;;;;;;;;;17.50;17.50;;;;;;;;5005864;28;8882;-78
2021/06/05 08:23:41;;;;;;;;;16.25;16.25;;;;;;;;5007830;28;8879;-77
2021/06/05 08:26:11;;;;;;;;;19.50;19.50;;;;;;;;5005225;28;8888;-79
2021/06/05 08:28:39;;;;;;;;;17.25;17.25;;;;;;;;5003230;28;8868;-78
2021/06/05 08:31:10;;;;;;;;;19.75;17.25;;;;;;;;5008717;28;8915;-79
2021/06/05 08:33:38;;;;;;;;;19.25;16.00;;;;;;;;5005052;28;8888;-79
2021/06/05 08:36:06;;;;;;;;;22.75;19.75;;;;;;;;5006770;28;8942;-78
2021/06/05 08:38:33;;;;;;;;;25.00;22.75;;;;;;;;5006079;28;8871;-78
2021/06/05 08:41:03;;;;;;;;;41.00;36.67;;;;;;;;5008019;28;8888;-78
2021/06/05 08:43:35;;;;;;;;;22.25;19.50;;;;;;;;5006623;28;9374;-78
2021/06/05 08:46:04;;;;;;;;;20.25;18.00;;;;;;;;5005652;28;8896;-78
2021/06/05 08:48:31;;;;;;;;;18.25;17.75;;;;;;;;5006334;28;8869;-78
2021/06/05 08:51:10;;;;;;;;;22.25;21.00;;;;;;;;5006080;28;8909;-80
2021/06/05 08:53:37;;;;;;;;;15.25;15.25;;;;;;;;5007365;28;9721;-78
2021/06/05 08:56:07;;;;;;;;;18.75;18.75;;;;;;;;5003752;28;8879;-77
2021/06/05 08:58:37;;;;;;;;;14.50;14.50;;;;;;;;5007332;28;9066;-78
2021/06/05 09:01:09;;;;;;;;;14.25;12.75;;;;;;;;5005418;28;8816;-79
2021/06/05 09:03:38;;;;;;;;;14.50;13.00;;;;;;;;5006251;28;8974;-78
2021/06/05 09:06:07;;;;;;;;;17.00;14.75;;;;;;;;5006349;28;8860;-77
2021/06/05 09:08:34;;;;;;;;;11.75;11.75;;;;;;;;5005466;28;9010;-78
2021/06/05 09:11:04;;;;;;;;;11.00;7.75;;;;;;;;5005456;28;8889;-78
2021/06/05 09:13:31;;;;;;;;;15.75;14.00;;;;;;;;4999621;28;9021;-77
2021/06/05 09:16:34;;;;;;;;;10.75;10.75;;;;;;;;5000535;28;8887;-79
2021/06/05 09:19:03;;;;;;;;;11.25;10.25;;;;;;;;5002018;28;8911;-80
2021/06/05 09:21:32;;;;;;;;;8.00;8.00;;;;;;;;4999225;28;8872;-78
2021/06/05 09:24:16;;;;;;;;;12.00;12.00;;;;;;;;5000761;28;8864;-78
2021/06/05 09:26:45;;;;;;;;;10.00;10.00;;;;;;;;5000276;28;8864;-79
2021/06/05 09:29:20;;;;;;;;;11.50;9.75;;;;;;;;5003113;28;8886;-82
2021/06/05 09:31:54;;;;;;;;;11.25;9.50;;;;;;;;4993660;28;8816;-80
2021/06/05 09:34:22;;;;;;;;;48.00;42.25;;;;;;;;4994835;28;8990;-80
2021/06/05 09:36:49;;;;;;;;;13.00;12.00;;;;;;;;5000236;28;10368;-79
2021/06/05 09:39:37;;;;;;;;;26.33;26.33;;;;;;;;4997484;28;8986;-80
2021/06/05 09:42:05;;;;;;;;;13.00;12.75;;;;;;;;4991425;28;9082;-80
2021/06/05 09:44:45;;;;;;;;;18.75;17.00;;;;;;;;4995767;28;8912;-80
2021/06/05 09:47:29;;;;;;;;;15.50;13.75;;;;;;;;4998866;28;8864;-82
2021/06/05 09:50:18;;;;;;;;;15.25;13.50;;;;;;;;4999057;28;8855;-80
2021/06/05 09:52:45;;;;;;;;;14.25;12.50;;;;;;;;4999600;28;8880;-80
2021/06/05 09:55:36;;;;;;;;;12.75;12.50;;;;;;;;5004021;28;8883;-80
2021/06/05 09:58:09;;;;;;;;;13.00;13.00;;;;;;;;4986889;28;8982;-83
2021/06/05 10:00:38;;;;;;;;;12.50;12.50;;;;;;;;4999542;28;8817;-79
2021/06/05 10:03:25;;;;;;;;;17.50;15.00;;;;;;;;5006853;28;8872;-75
2021/06/05 10:05:52;;;;;;;;;16.00;13.00;;;;;;;;4996854;28;9006;-76
2021/06/05 10:08:29;;;;;;;;;15.75;14.00;;;;;;;;5003646;28;8904;-83
2021/06/05 10:11:01;;;;;;;;;12.50;12.00;;;;;;;;4993201;28;8965;-83
2021/06/05 10:13:31;;;;;;;;;13.00;13.00;;;;;;;;5002473;28;8911;-81
2021/06/05 10:16:01;;;;;;;;;11.00;10.25;;;;;;;;5001399;28;8852;-78
2021/06/05 10:18:34;;;;;;;;;13.50;13.50;;;;;;;;5003049;28;8896;-85
2021/06/05 10:21:06;;;;;;;;;15.50;14.25;;;;;;;;5001713;28;8950;-77
2021/06/05 10:23:35;;;;;;;;;13.75;13.75;;;;;;;;5003981;28;8894;-84
2021/06/05 10:26:06;;;;;;;;;8.25;7.00;;;;;;;;5002732;28;8867;-82
2021/06/05 10:28:35;;;;;;;;;18.00;15.00;;;;;;;;5002896;28;8905;-82
2021/06/05 10:31:05;;;;;;;;;14.75;13.50;;;;;;;;4995463;28;9583;-80
2021/06/05 10:33:53;;;;;;;;;13.75;12.75;;;;;;;;5003067;28;8876;-77
2021/06/05 10:36:24;;;;;;;;;13.50;13.50;;;;;;;;4999572;28;8870;-77
2021/06/05 10:38:53;;;;;;;;;10.25;10.25;;;;;;;;5002091;28;8907;-78
2021/06/05 10:41:24;;;;;;;;;12.00;10.75;;;;;;;;5002026;28;8896;-78
2021/06/05 10:43:51;;;;;;;;;8.25;8.25;;;;;;;;5002829;28;8868;-79
2021/06/05 10:46:36;;;;;;;;;12.25;12.25;;;;;;;;5000759;28;8867;-76
2021/06/05 10:49:15;;;;;;;;;11.25;11.25;;;;;;;;4999661;28;9519;-80
2021/06/05 10:51:44;;;;;;;;;7.67;7.67;;;;;;;;5000502;28;8942;-80
2021/06/05 10:54:17;;;;;;;;;9.75;9.75;;;;;;;;4994436;28;8965;-78
2021/06/05 10:57:01;;;;;;;;;14.75;13.00;;;;;;;;4998478;28;8902;-84
2021/06/05 10:59:45;;;;;;;;;14.50;13.00;;;;;;;;5004085;28;8895;-80
2021/06/05 11:02:36;;;;;;;;;12.75;11.75;;;;;;;;5001114;28;8816;-79
2021/06/05 11:05:45;;;;;;;;;15.50;15.50;;;;;;;;4999386;28;8856;-80
2021/06/05 11:08:32;;;;;;;;;17.75;16.25;;;;;;;;5002833;28;9437;-81
2021/06/05 11:11:38;;;;;;;;;14.25;13.50;;;;;;;;4997811;28;9019;-80
2021/06/05 11:14:27;;;;;;;;;16.00;14.50;;;;;;;;4996586;28;8891;-80
2021/06/05 11:17:33;;;;;;;;;17.75;15.00;;;;;;;;5003378;28;8868;-80
2021/06/05 11:20:38;;;;;;;;;10.75;10.75;;;;;;;;4998911;28;9501;-89
2021/06/05 11:23:29;;;;;;;;;12.25;12.25;;;;;;;;5001632;28;8886;-80
2021/06/05 11:25:58;;;;;;;;;13.75;13.50;;;;;;;;4996449;28;9030;-85
2021/06/05 11:28:49;;;;;;;;;13.25;12.00;;;;;;;;5002759;28;9015;-81
2021/06/05 11:31:53;;;;;;;;;16.75;13.75;;;;;;;;5000811;28;8784;-89
2021/06/05 11:34:51;;;;;;;;;12.25;12.00;;;;;;;;5001657;28;9009;-87
2021/06/05 11:37:48;;;;;;;;;8.50;8.50;;;;;;;;5002764;28;8981;-87
2021/06/05 11:41:04;;;;;;;;;14.00;10.50;;;;;;;;4998814;28;8872;-85
2021/06/05 11:43:53;;;;;;;;;6.50;6.25;;;;;;;;5001864;28;8998;-81
2021/06/05 11:46:41;;;;;;;;;8.25;8.25;;;;;;;;4968527;28;8864;-84
2021/06/05 11:49:09;;;;;;;;;11.00;8.50;;;;;;;;5000068;28;8884;-85
2021/06/05 11:51:41;;;;;;;;;8.00;6.50;;;;;;;;5002665;28;8884;-88
2021/06/05 11:54:28;;;;;;;;;7.25;6.25;;;;;;;;5003244;28;8898;-82
2021/06/05 11:56:59;;;;;;;;;7.50;7.50;;;;;;;;4996404;28;8879;-85
2021/06/05 11:59:31;;;;;;;;;6.00;6.00;;;;;;;;5005149;28;8856;-85
2021/06/05 12:02:11;;;;;;;;;6.50;6.50;;;;;;;;5002781;28;8828;-86
2021/06/05 12:04:42;;;;;;;;;5.25;5.25;;;;;;;;4996606;28;8870;-84
2021/06/05 12:07:24;;;;;;;;;5.25;5.25;;;;;;;;4999502;28;8882;-84
2021/06/05 12:09:55;;;;;;;;;5.00;5.00;;;;;;;;5000902;28;8967;-82
2021/06/05 12:12:25;;;;;;;;;6.00;6.00;;;;;;;;5004126;28;9676;-83
2021/06/05 12:15:00;;;;;;;;;7.25;6.00;;;;;;;;4997252;28;8850;-85
2021/06/05 12:17:32;;;;;;;;;4.50;3.25;;;;;;;;5000813;28;8926;-81
2021/06/05 12:20:10;;;;;;;;;6.50;6.50;;;;;;;;5002497;28;8975;-82
2021/06/05 12:22:40;;;;;;;;;5.00;5.00;;;;;;;;5002264;28;8878;-81
2021/06/05 12:25:18;;;;;;;;;6.00;6.00;;;;;;;;5002158;28;8888;-81
2021/06/05 12:27:46;;;;;;;;;7.00;7.00;;;;;;;;4999902;28;8882;-84
2021/06/05 12:30:21;;;;;;;;;5.00;5.00;;;;;;;;4997291;28;8864;-85
2021/06/05 12:32:57;;;;;;;;;5.00;5.00;;;;;;;;5001187;28;8971;-79
2021/06/05 12:35:27;;;;;;;;;8.75;6.00;;;;;;;;5001764;28;8864;-84
2021/06/05 12:37:56;;;;;;;;;6.00;6.00;;;;;;;;5001573;28;8978;-86
2021/06/05 12:40:29;;;;;;;;;4.00;4.00;;;;;;;;5002678;28;8879;-85
2021/06/05 12:42:58;;;;;;;;;3.75;3.75;;;;;;;;4999031;28;8855;-86
2021/06/05 12:45:27;;;;;;;;;4.00;4.00;;;;;;;;4998218;28;8880;-85
2021/06/05 12:47:56;;;;;;;;;5.25;5.25;;;;;;;;5002040;28;8864;-84
2021/06/05 12:50:25;;;;;;;;;6.00;6.00;;;;;;;;4998670;28;8924;-86
2021/06/05 12:52:53;;;;;;;;;5.00;5.00;;;;;;;;5000930;28;8864;-85
2021/06/05 12:55:29;;;;;;;;;5.00;5.00;;;;;;;;4998970;28;9525;-88
2021/06/05 12:57:58;;;;;;;;;5.25;5.25;;;;;;;;4998883;28;8868;-86
2021/06/05 13:00:39;;;;;;;;;4.00;4.00;;;;;;;;5006573;28;8960;-86
2021/06/05 13:03:26;;;;;;;;;5.75;5.75;;;;;;;;4998734;28;8848;-82
2021/06/05 13:06:05;;;;;;;;;5.75;5.75;;;;;;;;5001617;28;8910;-83
2021/06/05 13:08:34;;;;;;;;;7.25;5.25;;;;;;;;5006092;28;8895;-85
2021/06/05 13:11:03;;;;;;;;;5.75;5.75;;;;;;;;5001810;28;8871;-82
2021/06/05 13:13:32;;;;;;;;;9.25;8.00;;;;;;;;5001675;28;8860;-87
2021/06/05 13:16:19;;;;;;;;;9.00;7.00;;;;;;;;5003963;28;8870;-86
2021/06/05 13:18:47;;;;;;;;;9.00;7.25;;;;;;;;4999418;28;8966;-84
2021/06/05 13:21:20;;;;;;;;;8.00;8.00;;;;;;;;4999149;28;9648;-83
2021/06/05 13:23:51;;;;;;;;;8.25;8.25;;;;;;;;5002970;28;8898;-79
2021/06/05 13:26:36;;;;;;;;;8.00;7.75;;;;;;;;4999778;28;8860;-83
2021/06/05 13:29:46;;;;;;;;;8.50;8.50;;;;;;;;5000989;28;8892;-79
2021/06/05 13:32:15;;;;;;;;;8.25;8.25;;;;;;;;4987038;28;8844;-79
2021/06/05 13:35:02;;;;;;;;;8.50;8.00;;;;;;;;4999503;28;8872;-78
2021/06/05 13:37:31;;;;;;;;;11.00;9.50;;;;;;;;4993864;28;8900;-79
2021/06/05 13:40:00;;;;;;;;;5.25;5.25;;;;;;;;5002430;28;8860;-78
2021/06/05 13:42:29;;;;;;;;;6.75;6.75;;;;;;;;4999607;28;8863;-81
2021/06/05 13:44:58;;;;;;;;;9.00;9.00;;;;;;;;5002311;28;8876;-80
2021/06/05 13:47:25;;;;;;;;;11.00;9.00;;;;;;;;4986369;28;8874;-87
2021/06/05 13:49:52;;;;;;;;;8.00;8.00;;;;;;;;4994601;28;8871;-79
2021/06/05 13:52:28;;;;;;;;;4.00;4.00;;;;;;;;4997426;28;8876;-79
2021/06/05 13:54:56;;;;;;;;;9.25;9.25;;;;;;;;4996012;28;8878;-79
2021/06/05 13:57:23;;;;;;;;;8.00;8.00;;;;;;;;4997679;28;8864;-80
2021/06/05 13:59:51;;;;;;;;;9.25;8.00;;;;;;;;4999087;28;8884;-79
2021/06/05 14:02:20;;;;;;;;;10.50;9.25;;;;;;;;5000697;28;8804;-79
2021/06/05 14:04:49;;;;;;;;;10.75;10.75;;;;;;;;4999555;28;8876;-79
2021/06/05 14:07:16;;;;;;;;;9.50;9.50;;;;;;;;4999281;28;8883;-79
2021/06/05 14:09:45;;;;;;;;;7.50;7.00;;;;;;;;4993835;28;8864;-80
2021/06/05 14:12:14;;;;;;;;;9.00;9.00;;;;;;;;4996134;28;8993;-80
2021/06/05 14:14:42;;;;;;;;;12.00;12.00;;;;;;;;5000768;28;8849;-79
2021/06/05 14:17:10;;;;;;;;;12.75;11.00;;;;;;;;4994865;28;8860;-79
2021/06/05 14:19:39;;;;;;;;;9.00;9.00;;;;;;;;4995105;28;8867;-80
2021/06/05 14:22:06;;;;;;;;;9.75;9.75;;;;;;;;4997169;28;8888;-79
2021/06/05 14:24:34;;;;;;;;;10.75;9.50;;;;;;;;4991682;28;8876;-79
2021/06/05 14:27:01;;;;;;;;;13.75;13.75;;;;;;;;4997856;28;8868;-79
2021/06/05 14:29:28;;;;;;;;;13.25;12.75;;;;;;;;5003447;28;9007;-78
2021/06/05 14:31:55;;;;;;;;;9.50;9.50;;;;;;;;4995905;28;8821;-80
2021/06/05 14:34:23;;;;;;;;;9.00;9.00;;;;;;;;4996960;28;9024;-79
2021/06/05 14:36:51;;;;;;;;;10.00;8.25;;;;;;;;4997740;28;8860;-80
2021/06/05 14:39:18;;;;;;;;;7.75;7.75;;;;;;;;4990703;28;8944;-81
2021/06/05 14:41:50;;;;;;;;;6.50;6.50;;;;;;;;4989288;28;8902;-78
2021/06/05 14:44:17;;;;;;;;;11.25;11.25;;;;;;;;4997647;28;8892;-77
2021/06/05 14:46:43;;;;;;;;;8.00;8.00;;;;;;;;5002339;28;8999;-78
2021/06/05 14:49:10;;;;;;;;;10.50;10.00;;;;;;;;5000577;28;8876;-78
2021/06/05 14:51:37;;;;;;;;;11.50;9.00;;;;;;;;4999602;28;8907;-78
2021/06/05 14:54:06;;;;;;;;;8.25;8.25;;;;;;;;4991915;28;8858;-79
2021/06/05 14:56:33;;;;;;;;;9.75;9.75;;;;;;;;4992488;28;8872;-79
2021/06/05 14:59:00;;;;;;;;;8.75;8.75;;;;;;;;4992778;28;8874;-80
2021/06/05 15:01:27;;;;;;;;;9.50;9.50;;;;;;;;4998720;28;9236;-80
2021/06/05 15:03:54;;;;;;;;;9.25;7.75;;;;;;;;5001517;28;9650;-79
2021/06/05 15:06:22;;;;;;;;;9.00;9.00;;;;;;;;4999384;28;8864;-80